createdAt,value
2022-11-26T00:01:28.200Z,16.17
2022-11-26T00:04:03.512Z,16.98
2022-11-26T00:06:39.882Z,17.17
2022-11-26T00:09:17.200Z,15.80
2022-11-26T00:11:52.735Z,16.48
2022-11-26T00:14:26.577Z,16.98
2022-11-26T00:17:00.676Z,15.82
2022-11-26T00:19:34.747Z,16.42
2022-11-26T00:22:16.325Z,17.55
2022-11-26T00:24:51.078Z,17.88
2022-11-26T00:27:28.996Z,17.05
2022-11-26T00:30:02.929Z,16.00
2022-11-26T00:32:37.322Z,17.90
2022-11-26T00:35:11.302Z,16.13
2022-11-26T00:37:47.564Z,16.50
2022-11-26T00:40:26.667Z,17.60
2022-11-26T00:43:02.252Z,17.48
2022-11-26T00:45:36.229Z,16.75
2022-11-26T00:48:13.225Z,15.55
2022-11-26T00:50:50.551Z,15.50
2022-11-26T00:53:28.483Z,17.08
2022-11-26T00:56:02.410Z,15.20
2022-11-26T00:58:37.893Z,15.57
2022-11-26T01:01:14.183Z,16.65
2022-11-26T01:03:48.340Z,16.95
2022-11-26T01:06:26.306Z,16.77
2022-11-26T01:09:00.953Z,16.27
2022-11-26T01:11:35.014Z,16.48
2022-11-26T01:14:17.008Z,14.43
2022-11-26T01:16:51.989Z,16.52
2022-11-26T01:19:26.175Z,16.88
2022-11-26T01:22:00.535Z,16.08
2022-11-26T01:24:34.750Z,16.73
2022-11-26T01:27:12.485Z,15.93
2022-11-26T01:29:47.905Z,15.55
2022-11-26T01:32:25.308Z,15.85
2022-11-26T01:35:03.247Z,14.90
2022-11-26T01:37:37.233Z,16.10
2022-11-26T01:40:37.335Z,16.52
2022-11-26T01:43:17.046Z,15.38
2022-11-26T01:45:52.544Z,15.32
2022-11-26T01:48:29.763Z,16.05
2022-11-26T01:51:06.251Z,15.25
2022-11-26T01:53:46.456Z,15.00
2022-11-26T01:56:27.526Z,15.35
2022-11-26T01:59:08.785Z,15.25
2022-11-26T02:01:44.828Z,15.07
2022-11-26T02:04:23.144Z,16.42
2022-11-26T02:06:58.561Z,15.82
2022-11-26T02:09:33.847Z,15.60
2022-11-26T02:12:08.475Z,14.95
2022-11-26T02:14:44.900Z,14.70
2022-11-26T02:17:27.715Z,14.35
2022-11-26T02:20:33.877Z,15.32
2022-11-26T02:23:56.010Z,15.02
2022-11-26T02:27:14.555Z,14.45
2022-11-26T02:30:17.728Z,15.52
2022-11-26T02:33:00.369Z,15.07
2022-11-26T02:35:42.246Z,15.98
2022-11-26T02:38:21.046Z,14.05
2022-11-26T02:40:55.007Z,14.02
2022-11-26T02:43:29.694Z,13.93
2022-11-26T02:46:10.931Z,13.38
2022-11-26T02:48:49.029Z,14.52
2022-11-26T02:51:30.708Z,13.48
2022-11-26T02:54:10.771Z,13.35
2022-11-26T02:56:45.247Z,14.02
2022-11-26T02:59:19.905Z,13.40
2022-11-26T03:02:00.452Z,13.70
2022-11-26T03:04:38.810Z,13.95
2022-11-26T03:07:15.035Z,13.50
2022-11-26T03:09:53.117Z,13.73
2022-11-26T03:12:27.220Z,13.48
2022-11-26T03:15:01.220Z,12.40
2022-11-26T03:17:39.175Z,13.18
2022-11-26T03:20:13.390Z,13.63
2022-11-26T03:22:47.339Z,14.38
2022-11-26T03:25:21.476Z,13.85
2022-11-26T03:27:55.496Z,12.45
2022-11-26T03:30:29.629Z,11.93
2022-11-26T03:33:05.023Z,12.82
2022-11-26T03:35:39.105Z,13.65
2022-11-26T03:38:12.992Z,13.15
2022-11-26T03:40:47.126Z,12.10
2022-11-26T03:43:21.092Z,12.82
2022-11-26T03:45:55.177Z,13.77
2022-11-26T03:48:30.844Z,12.70
2022-11-26T03:51:04.730Z,13.10
2022-11-26T03:53:38.690Z,12.93
2022-11-26T03:56:12.585Z,12.20
2022-11-26T03:58:46.429Z,12.20
2022-11-26T04:01:20.635Z,12.68
2022-11-26T04:03:55.967Z,13.93
2022-11-26T04:06:29.846Z,11.35
2022-11-26T04:09:03.697Z,12.77
2022-11-26T04:14:11.261Z,12.85
2022-11-26T04:16:45.244Z,12.65
2022-11-26T04:19:20.666Z,12.40
2022-11-26T04:21:54.595Z,13.10
2022-11-26T04:24:28.806Z,11.43
2022-11-26T04:27:02.719Z,12.05
2022-11-26T04:29:37.675Z,12.40
2022-11-26T04:32:11.671Z,12.63
2022-11-26T04:34:47.022Z,12.27
2022-11-26T04:37:20.977Z,10.93
2022-11-26T04:39:57.479Z,13.27
2022-11-26T04:42:31.851Z,11.80
2022-11-26T04:45:09.787Z,12.88
2022-11-26T04:47:43.835Z,12.75
2022-11-26T04:50:19.262Z,11.18
2022-11-26T04:52:53.423Z,11.75
2022-11-26T04:55:27.510Z,12.85
2022-11-26T04:58:01.395Z,12.25
2022-11-26T05:00:36.390Z,12.68
2022-11-26T05:03:10.539Z,12.32
2022-11-26T05:05:46.795Z,12.63
2022-11-26T05:08:20.634Z,13.05
2022-11-26T05:13:28.612Z,12.23
2022-11-26T05:16:02.446Z,13.00
2022-11-26T05:21:11.363Z,11.98
2022-11-26T05:23:45.353Z,12.07
2022-11-26T05:26:19.353Z,11.57
2022-11-26T05:28:53.284Z,12.52
2022-11-26T05:31:27.301Z,11.60
2022-11-26T05:34:01.296Z,11.27
2022-11-26T05:36:36.653Z,11.70
2022-11-26T05:39:10.653Z,12.65
2022-11-26T05:41:44.758Z,11.13
2022-11-26T05:44:18.547Z,12.95
2022-11-26T05:49:26.148Z,14.48
2022-11-26T05:52:01.864Z,11.52
2022-11-26T05:54:36.021Z,11.98
2022-11-26T05:57:10.923Z,11.13
2022-11-26T05:59:45.309Z,11.73
2022-11-26T06:02:19.617Z,11.30
2022-11-26T06:04:53.854Z,12.05
2022-11-26T06:07:29.311Z,12.18
2022-11-26T06:10:03.695Z,11.48
2022-11-26T06:12:38.056Z,12.25
2022-11-26T06:15:12.682Z,13.00
2022-11-26T06:17:46.681Z,12.73
2022-11-26T06:20:20.704Z,11.35
2022-11-26T06:22:56.209Z,11.98
2022-11-26T06:25:30.172Z,12.40
2022-11-26T06:28:04.182Z,11.73
2022-11-26T06:30:38.155Z,11.88
2022-11-26T06:33:12.330Z,12.82
2022-11-26T06:35:46.349Z,10.98
2022-11-26T06:38:21.878Z,11.20
2022-11-26T06:41:06.738Z,10.63
2022-11-26T06:43:40.621Z,10.95
2022-11-26T06:46:14.847Z,10.40
2022-11-26T06:48:48.908Z,12.15
2022-11-26T06:51:27.890Z,11.45
2022-11-26T06:54:03.454Z,11.88
2022-11-26T06:56:37.577Z,12.63
2022-11-26T06:59:11.683Z,12.32
2022-11-26T07:01:45.803Z,13.73
2022-11-26T07:04:19.778Z,12.48
2022-11-26T07:06:53.743Z,15.20
2022-11-26T07:09:29.135Z,13.95
2022-11-26T07:12:03.183Z,15.55
2022-11-26T07:14:37.766Z,15.38
2022-11-26T07:17:12.072Z,15.75
2022-11-26T07:19:46.061Z,16.27
2022-11-26T07:22:20.049Z,12.52
2022-11-26T07:24:55.588Z,14.93
2022-11-26T07:27:29.648Z,16.02
2022-11-26T07:30:03.669Z,17.30
2022-11-26T07:32:37.902Z,17.45
2022-11-26T07:35:11.810Z,17.30
2022-11-26T07:37:45.916Z,17.73
2022-11-26T07:40:21.374Z,18.52
2022-11-26T07:42:55.331Z,19.10
2022-11-26T07:45:31.583Z,18.35
2022-11-26T07:48:06.185Z,16.45
2022-11-26T07:50:40.120Z,18.20
2022-11-26T07:53:15.194Z,14.85
2022-11-26T07:55:50.672Z,16.05
2022-11-26T07:58:24.594Z,17.42
2022-11-26T08:00:58.543Z,17.50
2022-11-26T08:03:32.651Z,16.27
2022-11-26T08:06:09.047Z,17.02
2022-11-26T08:08:43.385Z,17.10
2022-11-26T08:11:20.874Z,15.50
2022-11-26T08:13:56.641Z,16.30
2022-11-26T08:16:30.938Z,17.92
2022-11-26T08:19:07.332Z,22.27
2022-11-26T08:21:41.978Z,22.50
2022-11-26T08:24:18.321Z,24.27
2022-11-26T08:26:53.807Z,25.98
2022-11-26T08:29:27.960Z,23.63
2022-11-26T08:32:02.024Z,22.73
2022-11-26T08:34:36.363Z,19.85
2022-11-26T08:37:10.835Z,20.92
2022-11-26T08:39:44.802Z,18.77
2022-11-26T08:42:20.272Z,18.33
2022-11-26T08:44:54.548Z,18.52
2022-11-26T08:47:29.461Z,16.80
2022-11-26T08:50:03.424Z,17.17
2022-11-26T08:52:37.793Z,18.40
2022-11-26T08:55:12.066Z,16.75
2022-11-26T08:57:48.492Z,16.88
2022-11-26T09:00:22.994Z,15.95
2022-11-26T09:02:57.285Z,16.10
2022-11-26T09:05:31.577Z,15.93
2022-11-26T09:08:05.960Z,17.45
2022-11-26T09:10:40.052Z,17.38
2022-11-26T09:13:20.773Z,16.70
2022-11-26T09:15:55.234Z,18.05
2022-11-26T09:18:29.518Z,15.07
2022-11-26T09:21:05.252Z,15.70
2022-11-26T09:23:39.207Z,15.05
2022-11-26T09:26:13.234Z,15.35
2022-11-26T09:28:49.254Z,16.52
2022-11-26T09:31:24.311Z,15.55
2022-11-26T09:33:59.371Z,16.67
2022-11-26T09:36:33.363Z,15.27
2022-11-26T09:39:08.026Z,16.02
2022-11-26T09:41:46.768Z,16.45
2022-11-26T09:44:31.707Z,15.30
2022-11-26T09:47:14.190Z,15.65
2022-11-26T09:50:02.691Z,13.98
2022-11-26T09:52:41.484Z,14.35
2022-11-26T09:55:19.665Z,15.05
2022-11-26T09:58:00.616Z,14.35
2022-11-26T10:00:40.369Z,13.18
2022-11-26T10:03:17.057Z,12.00
2022-11-26T10:05:58.711Z,13.15
2022-11-26T10:09:07.654Z,12.85
2022-11-26T10:11:49.387Z,15.15
2022-11-26T10:14:37.685Z,14.13
2022-11-26T10:17:29.329Z,15.98
2022-11-26T10:20:28.992Z,14.10
2022-11-26T10:23:08.962Z,15.38
2022-11-26T10:25:47.295Z,13.82
2022-11-26T10:28:23.443Z,13.88
2022-11-26T10:31:00.251Z,13.20
2022-11-26T10:33:42.895Z,13.40
2022-11-26T10:36:23.754Z,14.20
2022-11-26T10:38:57.811Z,13.82
2022-11-26T10:41:35.377Z,12.73
2022-11-26T10:44:40.239Z,12.48
2022-11-26T10:47:23.581Z,13.60
2022-11-26T10:50:45.489Z,13.95
2022-11-26T10:53:20.696Z,13.88
2022-11-26T10:55:57.117Z,13.20
2022-11-26T10:58:34.928Z,13.75
2022-11-26T11:01:09.500Z,14.73
2022-11-26T11:04:08.556Z,12.52
2022-11-26T11:06:45.142Z,12.85
2022-11-26T11:09:32.614Z,13.32
2022-11-26T11:12:17.976Z,13.38
2022-11-26T11:14:52.734Z,15.40
2022-11-26T11:17:37.560Z,15.57
2022-11-26T11:20:33.045Z,17.08
2022-11-26T11:23:23.133Z,16.38
2022-11-26T11:26:04.829Z,17.25
2022-11-26T11:28:42.918Z,17.80
2022-11-26T11:31:18.463Z,17.23
2022-11-26T11:33:53.965Z,19.42
2022-11-26T11:36:30.069Z,20.70
2022-11-26T11:39:05.862Z,21.88
2022-11-26T11:41:44.834Z,21.02
2022-11-26T11:44:22.225Z,20.85
2022-11-26T11:47:26.058Z,21.27
2022-11-26T11:50:13.791Z,21.30
2022-11-26T11:52:59.284Z,20.00
2022-11-26T11:55:49.061Z,18.83
2022-11-26T11:58:41.752Z,19.60
2022-11-26T12:01:28.224Z,19.10
2022-11-26T12:04:26.778Z,18.58
2022-11-26T12:07:23.548Z,17.85
2022-11-26T12:10:06.986Z,16.98
2022-11-26T12:12:47.736Z,17.30
2022-11-26T12:15:28.388Z,17.70
2022-11-26T12:18:10.059Z,18.40
2022-11-26T12:20:47.316Z,18.85
2022-11-26T12:23:30.691Z,28.13
2022-11-26T12:26:12.114Z,23.63
2022-11-26T12:28:55.064Z,23.92
2022-11-26T12:31:34.800Z,23.95
2022-11-26T12:34:14.387Z,21.85
2022-11-26T12:36:55.018Z,22.45
2022-11-26T12:39:40.027Z,24.20
2022-11-26T12:42:20.868Z,22.85
2022-11-26T12:45:07.199Z,22.17
2022-11-26T12:47:48.099Z,25.30
2022-11-26T12:50:29.035Z,26.38
2022-11-26T12:53:14.911Z,27.83
2022-11-26T12:55:57.882Z,33.42
2022-11-26T12:58:45.047Z,38.40
2022-11-26T13:01:20.856Z,39.75
2022-11-26T13:04:08.723Z,39.65
2022-11-26T13:07:04.529Z,39.20
2022-11-26T13:09:54.354Z,37.03
2022-11-26T13:12:38.346Z,35.20
2022-11-26T13:15:18.469Z,34.03
2022-11-26T13:17:57.462Z,31.70
2022-11-26T13:20:45.584Z,35.00
2022-11-26T13:23:39.698Z,33.65
2022-11-26T13:26:26.366Z,31.67
2022-11-26T13:29:20.075Z,31.67
2022-11-26T13:32:13.076Z,31.77
2022-11-26T13:35:05.155Z,32.65
2022-11-26T13:38:14.340Z,34.15
2022-11-26T13:41:05.622Z,31.90
2022-11-26T13:44:13.952Z,32.53
2022-11-26T13:46:53.356Z,31.63
2022-11-26T13:49:36.804Z,30.85
2022-11-26T13:52:16.878Z,32.80
2022-11-26T13:54:57.763Z,32.05
2022-11-26T13:57:39.737Z,33.40
2022-11-26T14:00:26.486Z,33.55
2022-11-26T14:03:01.610Z,34.17
2022-11-26T14:06:09.559Z,35.75
2022-11-26T14:08:46.859Z,34.05
2022-11-26T14:11:54.597Z,32.85
2022-11-26T14:14:33.800Z,31.50
2022-11-26T14:17:35.187Z,31.67
2022-11-26T14:20:12.960Z,31.85
2022-11-26T14:22:47.725Z,29.65
2022-11-26T14:25:39.115Z,28.45
2022-11-26T14:28:15.456Z,25.77
2022-11-26T14:33:27.537Z,26.23
2022-11-26T14:36:01.643Z,25.50
2022-11-26T14:38:35.509Z,25.13
2022-11-26T14:43:44.776Z,22.88
2022-11-26T14:48:59.615Z,21.45
2022-11-26T14:51:34.123Z,20.90
2022-11-26T14:54:14.865Z,21.60
2022-11-26T14:56:50.812Z,19.75
2022-11-26T14:59:24.681Z,19.85
2022-11-26T15:04:37.377Z,21.55
2022-11-26T15:07:25.365Z,19.83
2022-11-26T15:10:07.079Z,18.45
2022-11-26T15:12:43.396Z,19.17
2022-11-26T15:15:20.133Z,20.27
2022-11-26T15:17:57.069Z,20.45
2022-11-26T15:20:31.358Z,18.23
2022-11-26T15:23:06.948Z,18.63
2022-11-26T15:25:49.560Z,18.25
2022-11-26T15:28:25.280Z,17.90
2022-11-26T15:31:01.395Z,18.48
2022-11-26T15:33:37.091Z,19.63
2022-11-26T15:36:17.676Z,18.83
2022-11-26T15:39:03.211Z,19.38
2022-11-26T15:41:42.807Z,19.52
2022-11-26T15:44:24.080Z,21.20
2022-11-26T15:47:00.397Z,18.67
2022-11-26T15:49:37.417Z,19.00
2022-11-26T15:52:13.908Z,18.95
2022-11-26T15:55:11.949Z,17.40
2022-11-26T15:57:52.880Z,16.95
2022-11-26T16:00:35.122Z,19.02
2022-11-26T16:03:50.566Z,17.08
2022-11-26T16:06:33.685Z,17.50
2022-11-26T16:09:27.933Z,16.90
2022-11-26T16:12:03.062Z,18.30
2022-11-26T16:14:38.484Z,16.67
2022-11-26T16:17:17.243Z,17.98
2022-11-26T16:19:54.627Z,17.98
2022-11-26T16:22:34.142Z,17.30
2022-11-26T16:25:21.012Z,17.25
2022-11-26T16:28:15.661Z,17.65
2022-11-26T16:30:49.567Z,16.05
2022-11-26T16:33:24.785Z,17.30
2022-11-26T16:35:58.664Z,18.58
2022-11-26T16:41:05.919Z,19.67
2022-11-26T16:46:16.770Z,21.20
2022-11-26T16:48:52.851Z,20.55
2022-11-26T16:51:26.701Z,19.90
2022-11-26T16:56:38.276Z,23.20
2022-11-26T16:59:24.306Z,24.20
2022-11-26T17:01:58.137Z,25.23
2022-11-26T17:07:07.024Z,26.90
2022-11-26T17:09:41.302Z,22.10
2022-11-26T17:12:17.865Z,25.02
2022-11-26T17:17:31.587Z,24.98
2022-11-26T17:20:17.174Z,25.60
2022-11-26T17:22:53.158Z,26.13
2022-11-26T17:25:27.362Z,23.52
2022-11-26T17:28:01.597Z,25.52
2022-11-26T17:30:35.814Z,24.00
2022-11-26T17:33:12.399Z,23.65
2022-11-26T17:35:48.548Z,23.08
2022-11-26T17:38:23.748Z,23.83
2022-11-26T17:40:57.625Z,23.05
2022-11-26T17:43:31.590Z,23.40
2022-11-26T17:46:08.972Z,24.00
2022-11-26T17:48:46.494Z,24.33
2022-11-26T17:51:21.894Z,23.35
2022-11-26T17:53:55.951Z,24.90
2022-11-26T17:56:32.191Z,22.17
2022-11-26T18:01:39.693Z,21.92
2022-11-26T18:04:13.677Z,22.50
2022-11-26T18:06:59.465Z,21.73
2022-11-26T18:09:33.481Z,21.17
2022-11-26T18:12:09.000Z,20.73
2022-11-26T18:14:43.356Z,18.33
2022-11-26T18:17:17.490Z,18.88
2022-11-26T18:19:51.401Z,17.95
2022-11-26T18:22:28.455Z,17.27
2022-11-26T18:25:02.322Z,17.85
2022-11-26T18:27:36.947Z,16.98
2022-11-26T18:30:11.649Z,18.80
2022-11-26T18:32:46.260Z,20.33
2022-11-26T18:35:20.174Z,18.58
2022-11-26T18:37:55.494Z,19.85
2022-11-26T18:40:29.617Z,19.00
2022-11-26T18:43:03.547Z,21.30
2022-11-26T18:45:37.661Z,19.63
2022-11-26T18:48:11.722Z,19.60
2022-11-26T18:50:45.770Z,20.05
2022-11-26T18:53:21.202Z,21.00
2022-11-26T18:55:55.406Z,22.67
2022-11-26T18:58:29.478Z,22.00
2022-11-26T19:01:03.972Z,25.75
2022-11-26T19:03:41.207Z,25.52
2022-11-26T19:06:20.113Z,25.10
2022-11-26T19:08:59.073Z,27.40
2022-11-26T19:11:34.007Z,28.70
2022-11-26T19:14:08.157Z,28.10
2022-11-26T19:16:42.865Z,27.70
2022-11-26T19:19:16.733Z,27.98
2022-11-26T19:24:26.337Z,29.08
2022-11-26T19:27:00.717Z,29.00
2022-11-26T19:29:34.603Z,27.88
2022-11-26T19:32:08.676Z,29.25
2022-11-26T19:34:42.601Z,28.33
2022-11-26T19:37:16.610Z,27.75
2022-11-26T19:39:52.630Z,27.70
2022-11-26T19:42:26.578Z,25.92
2022-11-26T19:45:00.528Z,24.88
2022-11-26T19:47:34.758Z,30.02
2022-11-26T19:50:10.707Z,28.92
2022-11-26T19:52:47.903Z,27.90
2022-11-26T19:55:23.830Z,28.73
2022-11-26T19:57:57.770Z,29.92
2022-11-26T20:00:31.826Z,27.08
2022-11-26T20:03:06.122Z,28.55
2022-11-26T20:05:40.794Z,28.92
2022-11-26T20:08:15.065Z,27.17
2022-11-26T20:10:50.553Z,25.60
2022-11-26T20:13:24.645Z,25.17
2022-11-26T20:15:58.634Z,26.23
2022-11-26T20:21:08.099Z,25.17
2022-11-26T20:23:41.964Z,27.08
2022-11-26T20:26:21.947Z,28.30
2022-11-26T20:28:56.769Z,25.92
2022-11-26T20:31:31.036Z,23.98
2022-11-26T20:34:05.760Z,25.65
2022-11-26T20:36:39.842Z,28.02
2022-11-26T20:39:15.382Z,26.48
2022-11-26T20:41:50.992Z,28.20
2022-11-26T20:44:26.922Z,26.05
2022-11-26T20:47:01.310Z,26.40
2022-11-26T20:49:41.461Z,30.00
2022-11-26T20:52:16.674Z,29.83
2022-11-26T20:54:53.631Z,27.95
2022-11-26T20:57:29.231Z,26.90
2022-11-26T21:00:04.502Z,28.05
2022-11-26T21:02:39.109Z,27.73
2022-11-26T21:05:13.727Z,28.65
2022-11-26T21:07:47.575Z,30.77
2022-11-26T21:10:25.263Z,28.40
2022-11-26T21:13:00.481Z,27.42
2022-11-26T21:15:34.495Z,27.75
2022-11-26T21:18:08.429Z,27.33
2022-11-26T21:20:42.821Z,26.55
2022-11-26T21:23:16.915Z,26.75
2022-11-26T21:25:50.852Z,25.80
2022-11-26T21:28:26.129Z,23.23
2022-11-26T21:31:00.232Z,23.30
2022-11-26T21:33:34.087Z,24.50
2022-11-26T21:41:17.128Z,23.17
2022-11-26T21:43:53.512Z,25.13
2022-11-26T21:46:36.503Z,24.38
2022-11-26T21:49:12.404Z,23.88
2022-11-26T21:51:46.330Z,24.00
2022-11-26T21:54:20.877Z,23.48
2022-11-26T21:56:58.037Z,20.17
2022-11-26T21:59:33.506Z,20.17
2022-11-26T22:02:08.189Z,17.77
2022-11-26T22:04:42.203Z,19.45
2022-11-26T22:07:16.215Z,17.98
2022-11-26T22:09:50.205Z,18.00
2022-11-26T22:14:59.222Z,17.38
2022-11-26T22:17:33.401Z,16.83
2022-11-26T22:20:08.839Z,17.88
2022-11-26T22:22:42.786Z,15.85
2022-11-26T22:27:50.377Z,16.98
2022-11-26T22:30:25.782Z,16.33
2022-11-26T22:32:59.691Z,17.17
2022-11-26T22:35:33.814Z,15.27
2022-11-26T22:38:07.827Z,15.95
2022-11-26T22:40:44.002Z,14.80
2022-11-26T22:43:17.899Z,13.13
2022-11-26T22:48:27.277Z,14.63
2022-11-26T22:51:01.316Z,13.63
2022-11-26T22:53:35.183Z,13.68
2022-11-26T22:56:09.612Z,13.65
2022-11-26T22:58:43.561Z,14.60
2022-11-26T23:01:21.584Z,14.52
2022-11-26T23:03:56.767Z,14.35
2022-11-26T23:06:32.089Z,14.20
2022-11-26T23:09:07.894Z,12.93
2022-11-26T23:11:43.654Z,13.80
2022-11-26T23:14:17.698Z,13.00
2022-11-26T23:16:53.102Z,13.73
2022-11-26T23:19:26.929Z,13.00
2022-11-26T23:24:37.246Z,14.27
2022-11-26T23:27:11.097Z,13.82
2022-11-26T23:32:20.042Z,14.43
2022-11-26T23:34:54.052Z,12.80
2022-11-26T23:37:28.030Z,13.38
2022-11-26T23:42:35.705Z,13.17
2022-11-26T23:45:10.772Z,13.13
2022-11-26T23:47:46.231Z,13.15
2022-11-26T23:50:20.487Z,12.82
2022-11-26T23:52:54.505Z,13.95
2022-11-26T23:58:02.116Z,13.63
